Time;durP1;ratioP1;P1;durP2;ratioP2;P2;SDS_P1;SDS_P2;PMS_P1;PMS_P2;Temp;Humidity;BMP_temperature;BMP_pressure;BME280_temperature;BME280_humidity;BME280_pressure;Samples;Min_cycle;Max_cycle;Signal;HPM_P1;HPM_P2
2021/07/02 00:00:19;;;;;;;8.63;5.72;;;;;;;16.33;73.05;100483.81;5052709;28;20421;-85
2021/07/02 00:02:45;;;;;;;10.53;6.33;;;;;;;16.36;72.88;100487.91;5052421;28;20477;-85
2021/07/02 00:05:12;;;;;;;7.45;5.88;;;;;;;16.34;72.91;100482.69;5048379;28;20895;-85
2021/07/02 00:07:38;;;;;;;14.73;5.78;;;;;;;16.36;72.99;100490.66;5030778;28;20809;-85
2021/07/02 00:10:05;;;;;;;6.57;5.60;;;;;;;16.35;73.03;100489.81;5047775;28;20398;-85
2021/07/02 00:12:30;;;;;;;9.82;6.10;;;;;;;16.32;73.38;100490.38;5045424;28;20920;-85
2021/07/02 00:14:56;;;;;;;6.73;6.00;;;;;;;16.28;73.59;100486.56;5050960;28;20428;-85
2021/07/02 00:17:21;;;;;;;7.03;6.30;;;;;;;16.28;73.88;100486.56;5052523;28;20791;-85
2021/07/02 00:19:46;;;;;;;8.20;6.07;;;;;;;16.25;74.11;100481.66;5051199;28;20892;-85
2021/07/02 00:22:12;;;;;;;6.72;6.13;;;;;;;16.23;74.05;100483.88;5049507;28;20475;-85
2021/07/02 00:24:37;;;;;;;7.97;6.00;;;;;;;16.26;74.23;100482.50;5052282;28;20390;-85
2021/07/02 00:27:03;;;;;;;9.03;6.83;;;;;;;16.23;74.45;100475.69;5050776;28;20443;-85
2021/07/02 00:29:28;;;;;;;8.88;6.18;;;;;;;16.21;74.73;100479.75;5051598;28;20455;-85
2021/07/02 00:31:54;;;;;;;9.25;6.20;;;;;;;16.19;74.58;100482.81;5049750;28;20417;-85
2021/07/02 00:34:19;;;;;;;10.50;6.27;;;;;;;16.19;74.42;100485.53;5051492;28;20405;-85
2021/07/02 00:36:45;;;;;;;9.90;7.03;;;;;;;16.17;74.83;100473.25;5051695;28;20471;-85
2021/07/02 00:39:10;;;;;;;8.50;7.17;;;;;;;16.12;74.88;100471.34;5051183;28;20407;-85
2021/07/02 00:41:35;;;;;;;8.77;6.80;;;;;;;16.07;75.05;100468.63;5051596;28;20401;-85
2021/07/02 00:44:01;;;;;;;11.20;6.40;;;;;;;16.07;75.13;100476.81;5050148;28;20397;-85
2021/07/02 00:46:26;;;;;;;7.80;6.53;;;;;;;16.06;75.04;100476.03;5051799;28;20400;-85
2021/07/02 00:48:53;;;;;;;8.03;6.80;;;;;;;16.07;75.27;100480.38;5050534;28;20416;-85
2021/07/02 00:51:19;;;;;;;7.47;6.75;;;;;;;16.05;75.32;100471.66;5051742;28;20463;-85
2021/07/02 00:53:46;;;;;;;7.30;6.40;;;;;;;16.07;75.12;100471.34;5050058;28;20413;-85
2021/07/02 00:56:15;;;;;;;7.57;6.57;;;;;;;16.04;75.17;100467.28;5051465;28;20769;-85
2021/07/02 00:58:40;;;;;;;8.52;6.40;;;;;;;16.06;75.25;100472.47;5050619;28;20435;-85
2021/07/02 01:01:05;;;;;;;9.97;7.03;;;;;;;16.09;75.16;100466.44;5051587;28;20393;-86
2021/07/02 01:03:31;;;;;;;9.73;6.67;;;;;;;16.05;75.04;100463.44;5051493;28;20393;-85
2021/07/02 01:05:56;;;;;;;8.77;6.43;;;;;;;16.07;75.02;100465.88;5050476;28;20425;-85
2021/07/02 01:08:22;;;;;;;7.87;7.07;;;;;;;16.07;74.93;100458.50;5050048;28;20389;-85
2021/07/02 01:10:48;;;;;;;7.70;6.85;;;;;;;16.08;74.81;100462.88;5050298;28;20397;-85
2021/07/02 01:13:13;;;;;;;8.27;6.30;;;;;;;16.12;74.69;100465.06;5051141;28;20405;-85
2021/07/02 01:15:39;;;;;;;10.60;7.30;;;;;;;16.08;74.77;100456.59;5050119;28;20927;-85
2021/07/02 01:18:09;;;;;;;9.97;6.67;;;;;;;16.03;74.88;100457.47;5051280;28;20401;-85
2021/07/02 01:20:35;;;;;;;9.97;6.90;;;;;;;16.01;74.76;100456.91;5051380;28;20487;-85
2021/07/02 01:23:01;;;;;;;12.38;6.88;;;;;;;15.96;74.88;100459.69;5050108;28;20408;-85
2021/07/02 01:25:30;;;;;;;9.23;6.35;;;;;;;15.94;75.14;100466.50;5050196;28;20405;-85
2021/07/02 01:27:56;;;;;;;9.10;6.63;;;;;;;15.93;74.66;100459.41;5049858;28;20397;-85
2021/07/02 01:30:21;;;;;;;12.98;7.20;;;;;;;15.91;74.70;100450.66;5049695;28;20746;-85
2021/07/02 01:32:46;;;;;;;10.97;6.23;;;;;;;15.90;74.89;100463.53;5054470;28;20778;-85
2021/07/02 01:35:12;;;;;;;11.63;6.50;;;;;;;15.91;74.81;100464.31;5051129;28;20832;-85
2021/07/02 01:37:37;;;;;;;10.60;7.50;;;;;;;15.91;74.82;100467.88;5037611;28;20400;-85
2021/07/02 01:40:04;;;;;;;8.37;6.93;;;;;;;15.92;74.95;100465.97;5054643;28;20729;-85
2021/07/02 01:42:29;;;;;;;7.40;6.45;;;;;;;15.94;74.78;100459.13;5054477;28;20444;-85
2021/07/02 01:44:54;;;;;;;10.57;7.47;;;;;;;16.00;74.29;100468.13;5053578;28;20789;-85
2021/07/02 01:47:20;;;;;;;8.67;7.17;;;;;;;15.99;74.32;100464.56;5053866;28;20408;-85
2021/07/02 01:49:45;;;;;;;9.70;6.73;;;;;;;15.94;74.44;100459.13;5055250;28;20389;-85
2021/07/02 01:52:11;;;;;;;12.73;6.80;;;;;;;15.93;74.30;100464.88;5054227;28;20433;-85
2021/07/02 01:54:36;;;;;;;9.87;7.10;;;;;;;15.90;74.32;100465.44;5054571;28;20876;-85
2021/07/02 01:57:06;;;;;;;7.30;6.60;;;;;;;15.82;74.33;100461.38;5052765;28;20421;-85
2021/07/02 01:59:31;;;;;;;9.50;7.25;;;;;;;15.80;74.44;100462.75;5054770;28;20393;-85
2021/07/02 02:01:56;;;;;;;10.10;7.10;;;;;;;15.74;74.56;100461.94;5053492;28;20484;-85
2021/07/02 02:04:22;;;;;;;11.40;7.60;;;;;;;15.71;74.60;100458.97;5053146;28;20825;-85
2021/07/02 02:06:47;;;;;;;10.93;6.90;;;;;;;15.68;74.76;100454.84;5052136;28;20421;-85
2021/07/02 02:09:12;;;;;;;8.53;6.87;;;;;;;15.64;74.87;100450.25;5054818;28;20456;-85
2021/07/02 02:11:38;;;;;;;7.83;7.00;;;;;;;15.60;74.71;100449.97;5054803;28;20398;-85
2021/07/02 02:14:03;;;;;;;8.20;6.27;;;;;;;15.58;75.22;100450.25;5051514;28;20406;-85
2021/07/02 02:16:29;;;;;;;9.98;7.72;;;;;;;15.57;74.84;100453.25;5035616;28;20435;-85
2021/07/02 02:18:54;;;;;;;8.60;7.03;;;;;;;15.55;75.12;100449.97;5052142;28;20471;-85
2021/07/02 02:21:19;;;;;;;8.57;7.40;;;;;;;15.55;75.08;100452.72;5054814;28;20823;-85
2021/07/02 02:23:44;;;;;;;8.93;7.53;;;;;;;15.55;75.20;100444.50;5053614;28;20421;-84
2021/07/02 02:26:10;;;;;;;9.33;7.33;;;;;;;15.56;75.31;100448.88;5054590;28;20401;-85
2021/07/02 02:28:36;;;;;;;12.20;7.27;;;;;;;15.53;75.60;100447.53;5053874;28;20482;-85
2021/07/02 02:31:02;;;;;;;12.45;7.75;;;;;;;15.52;75.66;100450.53;5037283;28;20750;-85
2021/07/02 02:33:27;;;;;;;11.05;7.63;;;;;;;15.54;75.43;100446.41;5032715;28;20413;-85
2021/07/02 02:35:53;;;;;;;10.33;7.00;;;;;;;15.53;75.48;100458.47;5051599;28;20417;-84
2021/07/02 02:38:18;;;;;;;10.47;7.00;;;;;;;15.55;75.42;100455.44;5053916;28;20397;-85
2021/07/02 02:40:43;;;;;;;8.43;7.53;;;;;;;15.59;75.24;100453.78;5054219;28;20420;-85
2021/07/02 02:43:08;;;;;;;10.38;8.43;;;;;;;15.63;75.14;100456.78;5052126;28;20397;-85
2021/07/02 02:45:34;;;;;;;11.20;7.97;;;;;;;15.65;75.34;100455.41;5051156;28;20904;-85
2021/07/02 02:47:59;;;;;;;8.57;7.70;;;;;;;15.68;75.09;100452.13;5023178;28;20498;-85
2021/07/02 02:50:25;;;;;;;11.70;8.00;;;;;;;15.66;75.09;100453.50;5052717;28;20480;-85
2021/07/02 02:52:50;;;;;;;9.43;8.47;;;;;;;15.63;74.93;100452.16;5053784;28;20405;-85
2021/07/02 02:55:15;;;;;;;12.30;8.47;;;;;;;15.61;75.04;100456.25;5051375;28;20459;-85
2021/07/02 02:57:41;;;;;;;9.83;8.73;;;;;;;15.55;75.36;100448.06;5053850;28;20390;-85
2021/07/02 03:00:09;;;;;;;10.60;7.68;;;;;;;15.59;75.19;100453.78;5053857;28;20450;-85
2021/07/02 03:02:34;;;;;;;12.18;8.55;;;;;;;15.56;75.37;100452.44;5053336;28;20394;-85
2021/07/02 03:04:59;;;;;;;10.93;8.43;;;;;;;15.55;75.22;100450.81;5052332;28;20420;-85
2021/07/02 03:07:25;;;;;;;14.85;8.27;;;;;;;15.52;75.22;100454.09;5052191;28;20492;-85
2021/07/02 03:09:50;;;;;;;10.93;8.53;;;;;;;15.41;75.62;100448.91;5052328;28;20390;-85
2021/07/02 03:12:15;;;;;;;11.13;8.07;;;;;;;15.38;75.61;100453.00;5052750;28;20405;-85
2021/07/02 03:14:41;;;;;;;19.63;8.10;;;;;;;15.35;75.88;100461.75;5052246;28;20389;-85
2021/07/02 03:17:06;;;;;;;9.97;8.20;;;;;;;15.36;75.83;100455.19;5051567;28;20471;-86
2021/07/02 03:19:31;;;;;;;12.53;8.60;;;;;;;15.37;75.78;100459.56;5053569;28;20390;-85
2021/07/02 03:21:57;;;;;;;10.47;8.07;;;;;;;15.42;75.70;100458.72;5052276;28;20389;-85
2021/07/02 03:24:22;;;;;;;11.13;7.70;;;;;;;15.39;75.41;100462.81;5053376;28;20398;-85
2021/07/02 03:26:47;;;;;;;8.83;7.70;;;;;;;15.37;75.42;100464.19;5051940;28;20413;-85
2021/07/02 03:29:13;;;;;;;9.80;8.30;;;;;;;15.34;75.61;100462.84;5051925;28;20417;-85
2021/07/02 03:31:38;;;;;;;9.65;8.40;;;;;;;15.32;75.67;100462.28;5051676;28;20500;-85
2021/07/02 03:34:03;;;;;;;10.43;8.37;;;;;;;15.28;75.78;100463.94;5053253;28;20749;-85
2021/07/02 03:36:29;;;;;;;8.00;7.23;;;;;;;15.28;75.45;100463.94;5051018;28;20746;-85
2021/07/02 03:38:54;;;;;;;10.30;7.90;;;;;;;15.23;75.66;100472.13;5053129;28;20457;-85
2021/07/02 03:41:19;;;;;;;10.87;8.10;;;;;;;15.24;75.58;100472.97;5052672;28;20405;-85
2021/07/02 03:43:45;;;;;;;9.20;7.43;;;;;;;15.23;76.09;100477.59;5051682;28;20404;-85
2021/07/02 03:46:10;;;;;;;15.43;9.07;;;;;;;15.24;75.89;100481.16;5052191;28;20401;-84
2021/07/02 03:48:35;;;;;;;11.77;9.20;;;;;;;15.25;75.81;100485.50;5046771;28;20403;-84
2021/07/02 03:51:00;;;;;;;15.30;11.07;;;;;;;15.25;75.80;100477.31;5040260;28;20408;-84
2021/07/02 03:53:26;;;;;;;12.77;9.80;;;;;;;15.25;76.41;100480.88;5051744;28;20451;-84
2021/07/02 03:55:51;;;;;;;10.60;8.55;;;;;;;15.13;76.43;100474.88;5049152;28;20486;-84
2021/07/02 03:58:17;;;;;;;11.00;8.50;;;;;;;15.10;76.68;100478.16;5051116;28;20955;-84
2021/07/02 04:00:42;;;;;;;17.40;9.82;;;;;;;15.10;76.49;100480.88;5051141;28;20455;-84
2021/07/02 04:03:07;;;;;;;12.07;8.60;;;;;;;15.08;76.58;100477.63;5051703;28;20398;-84
2021/07/02 04:05:33;;;;;;;14.82;8.85;;;;;;;15.04;76.59;100479.25;5051756;28;20436;-84
2021/07/02 04:07:58;;;;;;;13.93;9.33;;;;;;;15.05;76.63;100484.44;5052693;28;20633;-84
2021/07/02 04:10:23;;;;;;;11.93;9.00;;;;;;;15.00;77.14;100478.16;5052614;28;20484;-84
2021/07/02 04:12:48;;;;;;;17.07;9.73;;;;;;;15.01;77.03;100477.09;5050713;28;20408;-84
2021/07/02 04:15:14;;;;;;;14.43;8.97;;;;;;;15.00;76.68;100479.00;5050172;28;20433;-83
2021/07/02 04:17:39;;;;;;;12.35;9.00;;;;;;;14.99;76.83;100480.06;5052639;28;20775;-84
2021/07/02 04:20:10;;;;;;;14.13;8.70;;;;;;;14.98;76.77;100480.34;5052389;28;21062;-84
2021/07/02 04:22:36;;;;;;;12.20;8.65;;;;;;;14.89;77.19;100477.34;5050484;28;20768;-84
2021/07/02 04:25:05;;;;;;;13.50;8.43;;;;;;;14.94;77.27;100491.00;5049352;28;20413;-84
2021/07/02 04:27:31;;;;;;;14.40;8.80;;;;;;;14.96;77.11;100493.44;5051581;28;20535;-84
2021/07/02 04:29:56;;;;;;;13.80;8.50;;;;;;;15.01;77.14;100496.19;5044179;28;20861;-84
2021/07/02 04:32:22;;;;;;;12.73;9.27;;;;;;;15.06;76.86;100491.53;5032275;28;20430;-84
2021/07/02 04:34:47;;;;;;;16.87;9.47;;;;;;;15.12;76.61;100502.44;5045496;28;20401;-84
2021/07/02 04:37:12;;;;;;;13.40;8.93;;;;;;;15.15;76.92;100502.72;5043492;28;21003;-84
2021/07/02 04:39:37;;;;;;;10.33;9.17;;;;;;;15.21;76.93;100498.09;5047765;28;20533;-84
2021/07/02 04:42:06;;;;;;;12.63;9.63;;;;;;;15.25;76.83;100501.88;5049942;28;20405;-84
2021/07/02 04:44:35;;;;;;;12.38;9.38;;;;;;;15.23;76.89;100504.91;5050962;28;20397;-84
2021/07/02 04:47:00;;;;;;;13.35;9.48;;;;;;;15.21;76.93;100496.19;5052032;28;20942;-84
2021/07/02 04:49:25;;;;;;;9.77;8.87;;;;;;;15.19;77.32;100506.53;5051903;28;20397;-83
2021/07/02 04:51:51;;;;;;;12.50;9.33;;;;;;;15.19;77.29;100506.53;5050464;28;20418;-83
2021/07/02 04:54:16;;;;;;;11.93;8.97;;;;;;;15.20;77.47;100519.09;5047733;28;20405;-83
2021/07/02 04:56:51;;;;;;;15.20;9.73;;;;;;;15.19;77.54;100517.47;5050610;28;20443;-83
2021/07/02 04:59:26;;;;;;;11.70;9.20;;;;;;;15.20;77.32;100515.56;5050310;28;20404;-83
2021/07/02 05:01:52;;;;;;;16.15;10.07;;;;;;;15.20;77.45;100516.38;5050022;28;20429;-84
2021/07/02 05:04:17;;;;;;;14.13;10.55;;;;;;;15.25;77.57;100518.25;5049645;28;20489;-83
2021/07/02 05:06:43;;;;;;;15.93;10.30;;;;;;;15.30;77.74;100523.72;5048592;28;20416;-83
2021/07/02 05:09:08;;;;;;;13.77;10.53;;;;;;;15.26;77.65;100514.44;5045323;28;20413;-84
2021/07/02 05:11:34;;;;;;;14.90;10.67;;;;;;;15.32;77.45;100522.34;5045233;28;20448;-83
2021/07/02 05:14:09;;;;;;;15.18;10.00;;;;;;;15.37;77.30;100522.38;5051172;28;20408;-83
2021/07/02 05:16:47;;;;;;;14.15;11.05;;;;;;;15.45;77.23;100524.53;5044220;28;20433;-83
2021/07/02 05:19:14;;;;;;;13.63;10.18;;;;;;;15.48;77.25;100526.75;5049183;28;20452;-83
2021/07/02 05:21:40;;;;;;;21.35;10.95;;;;;;;15.60;76.83;100520.19;5050500;28;20425;-84
2021/07/02 05:24:05;;;;;;;14.70;11.10;;;;;;;15.64;76.90;100524.00;5036891;28;20413;-84
2021/07/02 05:26:31;;;;;;;14.03;10.20;;;;;;;15.63;76.91;100525.91;5046943;28;20410;-83
2021/07/02 05:28:56;;;;;;;15.30;10.10;;;;;;;15.71;76.76;100530.78;5045222;28;20490;-83
2021/07/02 05:31:22;;;;;;;12.37;9.93;;;;;;;15.81;76.56;100532.69;5042713;28;20401;-83
2021/07/02 05:33:48;;;;;;;14.73;10.55;;;;;;;15.89;76.64;100527.47;5046146;28;20464;-83
2021/07/02 05:36:13;;;;;;;19.97;11.40;;;;;;;15.95;76.08;100531.00;5041999;28;20524;-84
2021/07/02 05:38:38;;;;;;;12.20;10.40;;;;;;;16.00;75.85;100534.53;5032472;28;20406;-83
2021/07/02 05:41:04;;;;;;;11.93;9.90;;;;;;;16.04;75.89;100541.09;5034194;28;20927;-84
2021/07/02 05:43:29;;;;;;;11.80;10.17;;;;;;;16.06;75.81;100541.63;5048244;28;20531;-84
2021/07/02 05:45:54;;;;;;;13.60;10.20;;;;;;;16.06;75.69;100540.81;5046755;28;20393;-85
2021/07/02 05:48:22;;;;;;;11.63;9.43;;;;;;;16.13;75.63;100543.25;5049529;28;20746;-85
2021/07/02 05:50:48;;;;;;;12.02;9.57;;;;;;;16.32;75.68;100547.00;5048956;28;20877;-86
2021/07/02 05:53:15;;;;;;;10.83;9.33;;;;;;;16.51;74.79;100545.25;5050299;28;20473;-85
2021/07/02 05:55:40;;;;;;;11.88;9.55;;;;;;;16.59;74.25;100540.06;5053293;28;20515;-84
2021/07/02 05:58:13;;;;;;;12.70;9.43;;;;;;;16.54;74.34;100541.94;5056919;28;20484;-85
2021/07/02 06:00:39;;;;;;;11.57;9.77;;;;;;;16.54;74.30;100544.69;5045203;28;20409;-85
2021/07/02 06:03:04;;;;;;;14.55;9.95;;;;;;;16.44;74.03;100556.50;5047072;28;20405;-84
2021/07/02 06:05:30;;;;;;;10.13;9.13;;;;;;;16.45;74.13;100544.47;5050071;28;20409;-84
2021/07/02 06:07:56;;;;;;;17.90;9.57;;;;;;;16.47;74.00;100547.72;5048540;28;20400;-84
2021/07/02 06:10:23;;;;;;;11.00;9.50;;;;;;;16.58;73.73;100554.00;5047393;28;20397;-84
2021/07/02 06:12:49;;;;;;;10.05;8.75;;;;;;;16.78;73.61;100553.06;5046814;28;20396;-86
2021/07/02 06:15:16;;;;;;;10.73;9.23;;;;;;;16.88;73.19;100559.31;5034418;28;20920;-84
2021/07/02 06:17:43;;;;;;;10.07;9.10;;;;;;;16.86;73.38;100561.47;5047309;28;20409;-84
2021/07/02 06:20:09;;;;;;;11.60;9.25;;;;;;;16.93;73.24;100555.69;5052660;28;20417;-84
2021/07/02 06:22:35;;;;;;;10.40;8.75;;;;;;;17.01;72.92;100552.38;5053891;28;20381;-84
2021/07/02 06:25:01;;;;;;;13.02;9.50;;;;;;;17.04;72.97;100552.59;5053669;28;20899;-85
2021/07/02 06:27:26;;;;;;;11.68;8.68;;;;;;;17.03;72.77;100559.19;5053854;28;20389;-84
2021/07/02 06:29:51;;;;;;;10.80;8.33;;;;;;;17.16;72.57;100556.91;5053166;28;20397;-83
2021/07/02 06:32:17;;;;;;;12.27;9.20;;;;;;;17.24;72.45;100548.91;5050423;28;20768;-84
2021/07/02 06:34:42;;;;;;;14.57;9.02;;;;;;;17.30;72.57;100558.69;5044508;28;20442;-84
2021/07/02 06:37:08;;;;;;;10.30;8.97;;;;;;;17.45;72.22;100564.03;5033723;28;20411;-84
2021/07/02 06:39:33;;;;;;;10.60;8.52;;;;;;;17.65;71.50;100557.56;5032901;28;20423;-84
2021/07/02 06:41:58;;;;;;;12.10;8.73;;;;;;;17.84;70.58;100566.72;5049675;28;20399;-84
2021/07/02 06:44:23;;;;;;;9.77;8.80;;;;;;;17.96;70.40;100566.31;5052060;28;20424;-84
2021/07/02 06:46:49;;;;;;;12.38;8.75;;;;;;;17.93;70.09;100562.22;5052881;28;20425;-84
2021/07/02 06:49:14;;;;;;;12.57;8.57;;;;;;;18.01;70.29;100564.31;5051128;28;20832;-84
2021/07/02 06:51:39;;;;;;;10.07;8.60;;;;;;;18.06;69.79;100571.69;5046549;28;20392;-83
2021/07/02 06:54:05;;;;;;;11.75;8.25;;;;;;;17.98;69.49;100572.34;5050931;28;20455;-84
2021/07/02 06:56:31;;;;;;;13.53;8.87;;;;;;;17.86;70.28;100564.50;5052280;28;20908;-84
2021/07/02 06:58:57;;;;;;;13.23;9.23;;;;;;;17.89;70.32;100574.88;5052861;28;20401;-84
2021/07/02 07:01:24;;;;;;;12.27;8.97;;;;;;;17.95;69.69;100570.16;5050520;28;20459;-85
2021/07/02 07:03:52;;;;;;;9.10;8.20;;;;;;;17.91;69.27;100580.91;5053175;28;20477;-85
2021/07/02 07:06:18;;;;;;;9.60;8.63;;;;;;;17.95;68.90;100578.38;5053088;28;20459;-85
2021/07/02 07:08:43;;;;;;;9.17;8.27;;;;;;;17.89;68.81;100579.53;5050959;28;20413;-81
2021/07/02 07:11:09;;;;;;;10.60;8.67;;;;;;;17.98;68.61;100584.09;5051447;28;20398;-85
2021/07/02 07:13:36;;;;;;;13.05;8.32;;;;;;;18.12;67.59;100578.75;5048326;28;20429;-85
2021/07/02 07:16:02;;;;;;;8.98;7.97;;;;;;;18.22;67.56;100586.84;5035076;28;21166;-85
2021/07/02 07:18:28;;;;;;;15.10;8.18;;;;;;;18.34;67.45;100586.47;5046638;28;20413;-85
2021/07/02 07:20:53;;;;;;;12.17;8.60;;;;;;;18.39;66.45;100584.47;5052623;28;20401;-84
2021/07/02 07:23:19;;;;;;;10.57;8.33;;;;;;;18.38;66.41;100585.56;5034613;28;20472;-85
2021/07/02 07:25:44;;;;;;;9.02;8.20;;;;;;;18.49;66.79;100598.06;5052018;28;20401;-85
2021/07/02 07:28:10;;;;;;;11.87;8.30;;;;;;;18.56;66.31;100592.25;5052796;28;20745;-86
2021/07/02 07:30:35;;;;;;;9.13;8.30;;;;;;;18.63;65.19;100592.69;5046428;28;20397;-85
2021/07/02 07:33:01;;;;;;;8.98;7.97;;;;;;;18.69;65.75;100594.25;5051588;28;20413;-85
2021/07/02 07:35:38;;;;;;;10.60;7.50;;;;;;;18.83;64.96;100599.84;5051929;28;20524;-85
2021/07/02 07:38:03;;;;;;;8.63;7.38;;;;;;;18.93;65.21;100600.53;5047458;28;20907;-87
2021/07/02 07:40:30;;;;;;;8.30;7.57;;;;;;;19.03;64.68;100594.06;5051166;28;20499;-87
2021/07/02 07:42:55;;;;;;;9.10;8.13;;;;;;;19.12;64.21;100598.56;5041691;28;20403;-87
2021/07/02 07:45:21;;;;;;;9.33;7.90;;;;;;;19.23;64.03;100607.50;5046298;28;20534;-87
2021/07/02 07:47:47;;;;;;;9.00;7.47;;;;;;;19.29;62.28;100597.22;5052269;28;21002;-87
2021/07/02 07:50:16;;;;;;;8.93;7.77;;;;;;;19.32;62.50;100600.19;5046994;28;20753;-87
2021/07/02 07:53:14;;;;;;;10.07;7.30;;;;;;;19.42;62.71;100596.50;5051074;28;21058;-87
2021/07/02 07:55:32;;;;;;;8.43;7.57;;;;;;;19.55;62.92;100590.22;5050771;28;20490;-86
2021/07/02 07:58:03;;;;;;;7.90;7.07;;;;;;;19.65;62.77;100599.13;5052304;28;20810;-88
2021/07/02 08:00:29;;;;;;;10.85;7.45;;;;;;;19.79;62.50;100601.09;5050135;28;20868;-87
2021/07/02 08:02:56;;;;;;;8.52;7.35;;;;;;;19.92;61.41;100598.31;5049061;28;20401;-87
2021/07/02 08:05:22;;;;;;;9.65;7.07;;;;;;;19.95;60.67;100597.75;5050684;28;20405;-86
2021/07/02 08:07:47;;;;;;;7.37;6.67;;;;;;;20.01;60.97;100598.47;5051076;28;20819;-86
2021/07/02 08:10:15;;;;;;;8.13;7.33;;;;;;;20.07;59.85;100595.31;5052231;28;20477;-87
2021/07/02 08:12:41;;;;;;;9.02;7.10;;;;;;;20.14;58.42;100598.47;5051828;28;20868;-87
2021/07/02 08:15:09;;;;;;;7.75;6.95;;;;;;;20.17;59.27;100603.38;5050001;28;20418;-87
2021/07/02 08:17:36;;;;;;;8.75;7.70;;;;;;;20.23;58.82;100603.25;5050520;28;20401;-87
2021/07/02 08:20:03;;;;;;;8.60;7.72;;;;;;;20.31;57.64;100602.59;5039912;28;20762;-87
2021/07/02 08:22:29;;;;;;;7.90;7.10;;;;;;;20.42;57.89;100599.31;5041649;28;20404;-87
2021/07/02 08:24:55;;;;;;;8.90;6.90;;;;;;;20.55;57.01;100608.69;5050390;28;20405;-87
2021/07/02 08:27:23;;;;;;;8.52;7.05;;;;;;;20.66;56.68;100610.91;5051191;28;20416;-86
2021/07/02 08:29:48;;;;;;;7.63;6.90;;;;;;;20.67;57.16;100603.47;5042955;28;20472;-86
2021/07/02 08:32:14;;;;;;;7.27;6.67;;;;;;;20.78;57.05;100599.34;5046450;28;20386;-86
2021/07/02 08:34:39;;;;;;;7.33;6.63;;;;;;;20.89;56.24;100611.78;5059146;28;20397;-86
2021/07/02 08:37:05;;;;;;;10.30;7.07;;;;;;;20.91;55.83;100612.28;5063843;28;20576;-85
2021/07/02 08:39:30;;;;;;;8.23;7.32;;;;;;;21.02;56.33;100607.38;5046223;28;20420;-88
2021/07/02 08:41:56;;;;;;;7.40;6.67;;;;;;;21.16;56.41;100619.22;5054985;28;20401;-87
2021/07/02 08:44:21;;;;;;;7.53;6.70;;;;;;;21.37;56.16;100612.06;5063541;28;20711;-87
2021/07/02 08:46:49;;;;;;;7.70;6.97;;;;;;;21.46;54.46;100614.91;5049613;28;20496;-87
2021/07/02 08:49:20;;;;;;;8.52;6.80;;;;;;;21.63;55.43;100613.09;5049243;28;20405;-87
2021/07/02 08:51:46;;;;;;;9.73;7.20;;;;;;;21.87;53.62;100609.16;5060140;28;20396;-87
2021/07/02 08:54:15;;;;;;;8.07;6.80;;;;;;;22.20;53.50;100616.81;5062673;28;20447;-87
2021/07/02 08:56:42;;;;;;;7.63;6.90;;;;;;;22.72;50.56;100603.22;5056521;28;20415;-86
2021/07/02 08:59:07;;;;;;;8.48;7.43;;;;;;;23.39;49.37;100613.81;5058959;28;20472;-86
2021/07/02 09:01:33;;;;;;;12.30;7.67;;;;;;;24.20;47.67;100598.06;5054862;28;20485;-86
2021/07/02 09:04:16;;;;;;;8.20;7.20;;;;;;;25.00;45.59;100602.50;5061306;28;20440;-86
2021/07/02 09:06:41;;;;;;;6.60;6.10;;;;;;;25.51;44.69;100601.28;5056735;28;20389;-88
2021/07/02 09:09:09;;;;;;;7.80;6.63;;;;;;;26.08;43.37;100592.19;5055724;28;20405;-86
2021/07/02 09:11:35;;;;;;;9.43;6.55;;;;;;;26.52;42.11;100607.16;5060922;28;20890;-86
2021/07/02 09:14:03;;;;;;;7.63;6.80;;;;;;;26.48;42.35;100609.00;5061162;28;20865;-87
2021/07/02 09:16:37;;;;;;;7.60;6.53;;;;;;;27.21;41.86;100604.16;5065125;28;20478;-87
2021/07/02 09:19:28;;;;;;;6.90;6.20;;;;;;;28.24;39.18;100605.06;5056332;28;20392;-87
2021/07/02 09:22:24;;;;;;;6.25;5.75;;;;;;;29.15;37.51;100622.38;5056762;28;20459;-86
2021/07/02 09:24:49;;;;;;;7.65;6.47;;;;;;;29.60;34.76;100614.19;5054167;28;20407;-86
2021/07/02 09:27:33;;;;;;;6.43;5.82;;;;;;;29.60;36.08;100618.97;5058994;28;20390;-86
2021/07/02 09:30:11;;;;;;;8.87;6.33;;;;;;;29.14;34.74;100621.59;5054447;28;20398;-87
2021/07/02 09:32:39;;;;;;;6.25;5.72;;;;;;;27.41;37.67;100625.44;5056106;28;20800;-86
2021/07/02 09:35:05;;;;;;;7.13;6.20;;;;;;;27.16;39.46;100621.13;5051141;28;20394;-86
2021/07/02 09:37:47;;;;;;;6.53;6.03;;;;;;;28.11;38.93;100623.84;5059253;28;20909;-87
2021/07/02 09:40:21;;;;;;;6.63;6.03;;;;;;;29.16;36.48;100619.22;5058813;28;20437;-86
2021/07/02 09:42:46;;;;;;;6.57;5.97;;;;;;;29.54;34.92;100617.66;5055235;28;20758;-86
2021/07/02 09:45:14;;;;;;;6.37;5.83;;;;;;;28.40;36.99;100624.56;5061343;28;20397;-86
2021/07/02 09:47:42;;;;;;;5.77;5.27;;;;;;;27.05;38.70;100620.78;5058805;28;20400;-86
2021/07/02 09:50:17;;;;;;;6.40;5.82;;;;;;;26.03;41.25;100622.94;5063003;28;20408;-86
2021/07/02 09:52:54;;;;;;;7.78;6.45;;;;;;;26.27;42.52;100623.84;5063018;28;20435;-86
2021/07/02 09:55:43;;;;;;;6.28;5.75;;;;;;;26.97;40.21;100626.50;5053845;28;20941;-86
2021/07/02 09:58:14;;;;;;;6.35;5.75;;;;;;;27.11;41.06;100629.69;5057815;28;20427;-86
2021/07/02 10:00:49;;;;;;;7.38;6.15;;;;;;;27.32;40.51;100628.38;5056186;28;20742;-87
2021/07/02 10:03:16;;;;;;;6.78;6.20;;;;;;;26.71;41.07;100627.63;5069827;28;20399;-86
2021/07/02 10:05:55;;;;;;;6.38;5.88;;;;;;;26.05;41.88;100624.22;5059489;28;20495;-86
2021/07/02 10:08:31;;;;;;;7.10;6.15;;;;;;;25.30;42.54;100634.56;5060050;28;20403;-86
2021/07/02 10:10:59;;;;;;;9.90;6.35;;;;;;;24.86;43.83;100632.47;5061940;28;20385;-86
2021/07/02 10:13:30;;;;;;;6.82;6.18;;;;;;;24.74;43.79;100635.91;5066644;28;20392;-86
2021/07/02 10:16:00;;;;;;;6.68;5.97;;;;;;;24.64;44.07;100630.75;5054456;28;20966;-86
2021/07/02 10:18:28;;;;;;;6.38;5.88;;;;;;;24.65;45.63;100626.84;5064008;28;20402;-86
2021/07/02 10:21:00;;;;;;;6.25;5.65;;;;;;;25.95;43.42;100629.41;5068594;28;20393;-86
2021/07/02 10:23:34;;;;;;;6.40;5.90;;;;;;;26.67;41.71;100629.53;5051644;28;20919;-86
2021/07/02 10:26:02;;;;;;;6.35;5.88;;;;;;;28.10;39.93;100622.22;5055352;28;20396;-87
2021/07/02 10:28:30;;;;;;;13.20;6.38;;;;;;;29.01;37.02;100622.88;5057358;28;20405;-87
2021/07/02 10:30:56;;;;;;;6.68;6.07;;;;;;;28.69;37.89;100624.13;5053839;28;20415;-87
2021/07/02 10:33:28;;;;;;;6.10;5.63;;;;;;;29.18;35.64;100632.78;5058799;28;20431;-86
2021/07/02 10:35:59;;;;;;;6.18;5.45;;;;;;;30.11;35.61;100630.72;5065252;28;20404;-87
2021/07/02 10:38:38;;;;;;;7.93;5.53;;;;;;;30.47;34.13;100632.16;5063375;28;20422;-87
2021/07/02 10:41:11;;;;;;;5.93;5.30;;;;;;;30.68;34.48;100635.31;5062716;28;20819;-87
2021/07/02 10:43:37;;;;;;;6.13;5.57;;;;;;;29.52;35.74;100636.75;5059925;28;20578;-86
2021/07/02 10:46:16;;;;;;;6.37;5.60;;;;;;;28.34;36.68;100633.22;5055481;28;20410;-87
2021/07/02 10:49:05;;;;;;;6.22;4.90;;;;;;;27.74;38.17;100628.78;5063697;28;20415;-86
2021/07/02 10:51:35;;;;;;;6.13;5.60;;;;;;;29.18;36.27;100630.00;5060725;28;20431;-86
2021/07/02 10:56:49;;;;;;;5.30;4.90;;;;;;;31.19;33.41;100639.28;5058985;28;20453;-87
2021/07/02 10:59:24;;;;;;;5.65;5.25;;;;;;;31.48;32.62;100623.69;5064791;28;20756;-88
2021/07/02 11:02:08;;;;;;;5.82;5.32;;;;;;;31.14;33.59;100631.22;5056763;28;20412;-87
2021/07/02 11:04:38;;;;;;;5.45;4.95;;;;;;;30.33;34.85;100632.72;5060585;28;20427;-87
2021/07/02 11:09:51;;;;;;;5.35;5.05;;;;;;;28.06;37.42;100629.69;5044366;28;20408;-87
2021/07/02 11:12:24;;;;;;;5.03;4.70;;;;;;;27.43;38.55;100628.69;5061921;28;20403;-86
2021/07/02 11:14:52;;;;;;;6.18;5.68;;;;;;;27.30;38.98;100613.97;5058248;28;20483;-87
2021/07/02 11:17:19;;;;;;;5.15;4.85;;;;;;;27.69;37.46;100623.50;5067389;28;20500;-87
2021/07/02 11:19:45;;;;;;;8.10;5.55;;;;;;;27.38;37.75;100623.34;5054996;28;20446;-88
2021/07/02 11:22:28;;;;;;;5.10;4.73;;;;;;;27.79;38.86;100624.97;5054722;28;20401;-88
2021/07/02 11:25:05;;;;;;;6.35;5.75;;;;;;;27.94;37.86;100615.81;5047288;28;20934;-91
2021/07/02 11:27:42;;;;;;;6.68;5.40;;;;;;;28.09;38.80;100620.59;5054234;28;20428;-89